MSC Lirica — HOPW — position and weather

sailwx.info

Track history (hours):
 
Tides and Currents Weather Stations Pressure Air Temp Water Temp Dewpoint Dewpoint Depression Visibility Wind Speed Wind Dir Waves Ship Positions

MSC Lirica

Operator: Mediterranean Shipping Company

Last reported at 2019-Nov-27 17:30 UTC. Time now 2019-Dec-15 11:34 UTC.
Position N 34°34' E 033°05'.
Warning: this ship's position is 17 days out of date.

Length 275 m; draft 6.8 m.

Type: Passenger vessel. MMSI: 356042000.

Date/timePositionNaut miles runAvg speedWind from/ knotsBaromVisibWave heightAir tempDewpointWater temp
2019-Nov-27 17:30N 34°34' E 033°05'510.6
2019-Nov-27 17:00N 34°39' E 033°04'2 3.9
2019-Nov-27 16:30N 34°39' E 033°01'0 0.2
2019-Nov-27 15:29N 34°39' E 033°01'0 0.0
2019-Nov-27 14:29N 34°39' E 033°01'0 0.0
2019-Nov-27 13:59N 34°39' E 033°01'0 0.0
2019-Nov-27 12:59N 34°39' E 033°01'0 0.0
2019-Nov-27 11:29N 34°39' E 033°01'0 0.0
2019-Nov-27 09:59N 34°39' E 033°01'0 0.0
2019-Nov-27 09:29N 34°39' E 033°01'0 0.0
2019-Nov-27 08:29N 34°39' E 033°01'5 2.4
2019-Nov-27 06:31N 34°37' E 033°06'  
2019-Nov-24 19:30N 37°15' E 023°46'2814.3
2019-Nov-24 17:30N 37°43' E 023°41'815.2
2019-Nov-24 17:00N 37°50' E 023°37'7 2.6
2019-Nov-24 14:29N 37°56' E 023°38'0 0.0
2019-Nov-24 12:29N 37°56' E 023°38'0 0.0
2019-Nov-24 11:59N 37°56' E 023°38'0 0.0
2019-Nov-24 08:29N 37°56' E 023°38'0 0.0
2019-Nov-24 06:29N 37°56' E 023°38'6 3.9
2019-Nov-24 05:01N 37°51' E 023°39'2315.4
2019-Nov-24 03:30N 37°28' E 023°45'816.3
2019-Nov-24 03:00N 37°20' E 023°44'63912.4
2019-Nov-21 23:30N 44°40' E 013°31'5814.6
2019-Nov-21 19:31N 45°38' E 013°33'9 5.7
2019-Nov-21 17:59N 45°39' E 013°46'0 0.0
2019-Nov-21 16:53N 45°39' E 013°46'0 0.0
2019-Nov-21 15:56N 45°39' E 013°46'0 0.0
2019-Nov-21 15:29N 45°39' E 013°46'0 0.0
2019-Nov-21 12:29N 45°39' E 013°46'0 0.0
2019-Nov-21 11:56N 45°39' E 013°46'0 0.0
2019-Nov-21 10:26N 45°39' E 013°46'0 0.0
2019-Nov-21 09:59N 45°39' E 013°46'0 0.0
2019-Nov-21 08:59N 45°39' E 013°46'0 0.0
2019-Nov-21 07:29N 45°39' E 013°46'11 5.6
2019-Nov-21 05:30N 45°35' E 013°31'2512.7
2019-Nov-21 03:31N 45°11' E 013°16'3517.4
2019-Nov-21 01:31N 44°40' E 013°37'1717.3
2019-Nov-21 00:30N 44°26' E 013°51'  
2019-Nov-18 16:00N 37°28' E 025°17'2 3.5
2019-Nov-18 15:28N 37°28' E 025°19'0 0.0
2019-Nov-18 12:22N 37°28' E 025°19'0 0.0
2019-Nov-18 10:58N 37°28' E 025°19'0 0.0
2019-Nov-18 09:19N 37°28' E 025°19'4 1.0
2019-Nov-18 05:30N 37°32' E 025°19'713.1
2019-Nov-18 05:00N 37°38' E 025°21'1313.1
2019-Nov-18 04:00N 37°51' E 025°23'  
Track history (hours):
 
Tides and Currents Weather Stations Pressure Air Temp Water Temp Dewpoint Dewpoint Depression Visibility Wind Speed Wind Dir Waves Ship Positions

MSC Lirica

Operator: Mediterranean Shipping Company

Last reported at 2019-Nov-27 17:30 UTC. Time now 2019-Dec-15 11:34 UTC.
Position N 34°34' E 033°05'.
Warning: this ship's position is 17 days out of date.

Length 275 m; draft 6.8 m.

Type: Passenger vessel. MMSI: 356042000.

Date/timePositionNaut miles runAvg speedWind from/ knotsBaromVisibWave heightAir tempDewpointWater temp
2019-Nov-27 17:30N 34°34' E 033°05'510.6
2019-Nov-27 17:00N 34°39' E 033°04'2 3.9
2019-Nov-27 16:30N 34°39' E 033°01'0 0.2
2019-Nov-27 15:29N 34°39' E 033°01'0 0.0
2019-Nov-27 14:29N 34°39' E 033°01'0 0.0
2019-Nov-27 13:59N 34°39' E 033°01'0 0.0
2019-Nov-27 12:59N 34°39' E 033°01'0 0.0
2019-Nov-27 11:29N 34°39' E 033°01'0 0.0
2019-Nov-27 09:59N 34°39' E 033°01'0 0.0
2019-Nov-27 09:29N 34°39' E 033°01'0 0.0
2019-Nov-27 08:29N 34°39' E 033°01'5 2.4
2019-Nov-27 06:31N 34°37' E 033°06'  
2019-Nov-24 19:30N 37°15' E 023°46'2814.3
2019-Nov-24 17:30N 37°43' E 023°41'815.2
2019-Nov-24 17:00N 37°50' E 023°37'7 2.6
2019-Nov-24 14:29N 37°56' E 023°38'0 0.0
2019-Nov-24 12:29N 37°56' E 023°38'0 0.0
2019-Nov-24 11:59N 37°56' E 023°38'0 0.0
2019-Nov-24 08:29N 37°56' E 023°38'0 0.0
2019-Nov-24 06:29N 37°56' E 023°38'6 3.9
2019-Nov-24 05:01N 37°51' E 023°39'2315.4
2019-Nov-24 03:30N 37°28' E 023°45'816.3
2019-Nov-24 03:00N 37°20' E 023°44'63912.4
2019-Nov-21 23:30N 44°40' E 013°31'5814.6
2019-Nov-21 19:31N 45°38' E 013°33'9 5.7
2019-Nov-21 17:59N 45°39' E 013°46'0 0.0
2019-Nov-21 16:53N 45°39' E 013°46'0 0.0
2019-Nov-21 15:56N 45°39' E 013°46'0 0.0
2019-Nov-21 15:29N 45°39' E 013°46'0 0.0
2019-Nov-21 12:29N 45°39' E 013°46'0 0.0
2019-Nov-21 11:56N 45°39' E 013°46'0 0.0
2019-Nov-21 10:26N 45°39' E 013°46'0 0.0
2019-Nov-21 09:59N 45°39' E 013°46'0 0.0
2019-Nov-21 08:59N 45°39' E 013°46'0 0.0
2019-Nov-21 07:29N 45°39' E 013°46'11 5.6
2019-Nov-21 05:30N 45°35' E 013°31'2512.7
2019-Nov-21 03:31N 45°11' E 013°16'3517.4
2019-Nov-21 01:31N 44°40' E 013°37'1717.3
2019-Nov-21 00:30N 44°26' E 013°51'  
2019-Nov-18 16:00N 37°28' E 025°17'2 3.5
2019-Nov-18 15:28N 37°28' E 025°19'0 0.0
2019-Nov-18 12:22N 37°28' E 025°19'0 0.0
2019-Nov-18 10:58N 37°28' E 025°19'0 0.0
2019-Nov-18 09:19N 37°28' E 025°19'4 1.0
2019-Nov-18 05:30N 37°32' E 025°19'713.1
2019-Nov-18 05:00N 37°38' E 025°21'1313.1
2019-Nov-18 04:00N 37°51' E 025°23'  

Dump ship's entire track history